sensor_id;sensor_type;location;lat;lon;timestamp;temperature;humidity
20658;DHT22;10488;50.846;4.078;2024-02-21T00:01:39;9.80;99.90
20658;DHT22;10488;50.846;4.078;2024-02-21T00:04:04;9.80;99.90
20658;DHT22;10488;50.846;4.078;2024-02-21T00:06:31;9.70;99.90
20658;DHT22;10488;50.846;4.078;2024-02-21T00:08:56;9.70;99.90
20658;DHT22;10488;50.846;4.078;2024-02-21T00:11:22;9.70;99.90
20658;DHT22;10488;50.846;4.078;2024-02-21T00:13:48;9.60;99.90
20658;DHT22;10488;50.846;4.078;2024-02-21T00:16:13;9.70;99.90
20658;DHT22;10488;50.846;4.078;2024-02-21T00:18:41;9.70;99.90
20658;DHT22;10488;50.846;4.078;2024-02-21T00:21:06;9.80;99.90
20658;DHT22;10488;50.846;4.078;2024-02-21T00:23:32;9.80;99.90
20658;DHT22;10488;50.846;4.078;2024-02-21T00:25:58;9.60;99.90
20658;DHT22;10488;50.846;4.078;2024-02-21T00:28:23;9.50;99.90
20658;DHT22;10488;50.846;4.078;2024-02-21T00:30:49;9.50;99.90
20658;DHT22;10488;50.846;4.078;2024-02-21T00:33:16;9.40;99.90
20658;DHT22;10488;50.846;4.078;2024-02-21T00:35:42;9.40;99.90
20658;DHT22;10488;50.846;4.078;2024-02-21T00:38:07;9.40;99.90
20658;DHT22;10488;50.846;4.078;2024-02-21T00:40:34;9.40;99.90
20658;DHT22;10488;50.846;4.078;2024-02-21T00:43:00;9.40;99.90
20658;DHT22;10488;50.846;4.078;2024-02-21T00:45:26;9.40;99.90
20658;DHT22;10488;50.846;4.078;2024-02-21T00:47:51;9.30;99.90
20658;DHT22;10488;50.846;4.078;2024-02-21T00:50:17;9.40;99.90
20658;DHT22;10488;50.846;4.078;2024-02-21T00:52:42;9.50;99.90
20658;DHT22;10488;50.846;4.078;2024-02-21T00:55:08;9.50;99.90
20658;DHT22;10488;50.846;4.078;2024-02-21T00:57:34;9.50;99.90
20658;DHT22;10488;50.846;4.078;2024-02-21T01:00:01;9.60;99.90
20658;DHT22;10488;50.846;4.078;2024-02-21T01:02:27;9.50;99.90
20658;DHT22;10488;50.846;4.078;2024-02-21T01:04:52;9.40;99.90
20658;DHT22;10488;50.846;4.078;2024-02-21T01:07:18;9.40;99.90
20658;DHT22;10488;50.846;4.078;2024-02-21T01:09:44;9.30;99.90
20658;DHT22;10488;50.846;4.078;2024-02-21T01:12:09;9.20;99.90
20658;DHT22;10488;50.846;4.078;2024-02-21T01:14:35;9.10;99.90
20658;DHT22;10488;50.846;4.078;2024-02-21T01:17:00;9.00;99.90
20658;DHT22;10488;50.846;4.078;2024-02-21T01:19:26;8.90;99.90
20658;DHT22;10488;50.846;4.078;2024-02-21T01:21:52;8.80;99.90
20658;DHT22;10488;50.846;4.078;2024-02-21T01:24:18;8.80;99.90
20658;DHT22;10488;50.846;4.078;2024-02-21T01:26:43;8.80;99.90
20658;DHT22;10488;50.846;4.078;2024-02-21T01:29:09;8.70;99.90
20658;DHT22;10488;50.846;4.078;2024-02-21T01:31:34;8.70;99.90
20658;DHT22;10488;50.846;4.078;2024-02-21T01:34:00;8.60;99.90
20658;DHT22;10488;50.846;4.078;2024-02-21T01:36:26;8.50;99.90
20658;DHT22;10488;50.846;4.078;2024-02-21T01:38:51;8.50;99.90
20658;DHT22;10488;50.846;4.078;2024-02-21T01:41:17;8.50;99.90
20658;DHT22;10488;50.846;4.078;2024-02-21T01:43:43;8.50;99.90
20658;DHT22;10488;50.846;4.078;2024-02-21T01:46:08;8.50;99.90
20658;DHT22;10488;50.846;4.078;2024-02-21T01:48:34;8.50;99.90
20658;DHT22;10488;50.846;4.078;2024-02-21T01:51:01;8.60;99.90
20658;DHT22;10488;50.846;4.078;2024-02-21T01:53:42;8.60;99.90
20658;DHT22;10488;50.846;4.078;2024-02-21T01:56:08;8.60;99.90
20658;DHT22;10488;50.846;4.078;2024-02-21T01:58:36;8.60;99.90
20658;DHT22;10488;50.846;4.078;2024-02-21T02:01:03;8.60;99.90
20658;DHT22;10488;50.846;4.078;2024-02-21T02:03:28;8.50;99.90
20658;DHT22;10488;50.846;4.078;2024-02-21T02:05:55;8.50;99.90
20658;DHT22;10488;50.846;4.078;2024-02-21T02:08:21;8.40;99.90
20658;DHT22;10488;50.846;4.078;2024-02-21T02:10:50;8.40;99.90
20658;DHT22;10488;50.846;4.078;2024-02-21T02:13:15;8.40;99.90
20658;DHT22;10488;50.846;4.078;2024-02-21T02:15:46;8.40;99.90
20658;DHT22;10488;50.846;4.078;2024-02-21T02:18:13;8.50;99.90
20658;DHT22;10488;50.846;4.078;2024-02-21T02:20:39;8.50;99.90
20658;DHT22;10488;50.846;4.078;2024-02-21T02:25:43;8.50;99.90
20658;DHT22;10488;50.846;4.078;2024-02-21T02:28:09;8.50;99.90
20658;DHT22;10488;50.846;4.078;2024-02-21T02:30:36;8.50;99.90
20658;DHT22;10488;50.846;4.078;2024-02-21T02:33:05;8.50;99.90
20658;DHT22;10488;50.846;4.078;2024-02-21T02:35:31;8.50;99.90
20658;DHT22;10488;50.846;4.078;2024-02-21T02:37:57;8.60;99.90
20658;DHT22;10488;50.846;4.078;2024-02-21T02:40:22;8.70;99.90
20658;DHT22;10488;50.846;4.078;2024-02-21T02:42:49;8.80;99.90
20658;DHT22;10488;50.846;4.078;2024-02-21T02:45:15;8.70;99.90
20658;DHT22;10488;50.846;4.078;2024-02-21T02:47:41;8.70;99.90
20658;DHT22;10488;50.846;4.078;2024-02-21T02:50:07;8.80;99.90
20658;DHT22;10488;50.846;4.078;2024-02-21T02:52:33;8.80;99.90
20658;DHT22;10488;50.846;4.078;2024-02-21T02:54:59;8.80;99.90
20658;DHT22;10488;50.846;4.078;2024-02-21T02:57:25;9.00;99.90
20658;DHT22;10488;50.846;4.078;2024-02-21T02:59:51;9.00;99.90
20658;DHT22;10488;50.846;4.078;2024-02-21T03:02:17;9.00;99.90
20658;DHT22;10488;50.846;4.078;2024-02-21T03:04:43;9.10;99.90
20658;DHT22;10488;50.846;4.078;2024-02-21T03:07:09;9.10;99.90
20658;DHT22;10488;50.846;4.078;2024-02-21T03:09:40;9.00;99.90
20658;DHT22;10488;50.846;4.078;2024-02-21T03:12:06;9.00;99.90
20658;DHT22;10488;50.846;4.078;2024-02-21T03:14:32;9.00;99.90
20658;DHT22;10488;50.846;4.078;2024-02-21T03:16:58;9.10;99.90
20658;DHT22;10488;50.846;4.078;2024-02-21T03:19:24;9.10;99.90
20658;DHT22;10488;50.846;4.078;2024-02-21T03:21:50;9.00;99.90
20658;DHT22;10488;50.846;4.078;2024-02-21T03:24:17;9.10;99.90
20658;DHT22;10488;50.846;4.078;2024-02-21T03:26:42;9.10;99.90
20658;DHT22;10488;50.846;4.078;2024-02-21T03:29:10;9.20;99.90
20658;DHT22;10488;50.846;4.078;2024-02-21T03:31:35;9.10;99.90
20658;DHT22;10488;50.846;4.078;2024-02-21T03:34:01;9.20;99.90
20658;DHT22;10488;50.846;4.078;2024-02-21T03:36:27;9.10;99.90
20658;DHT22;10488;50.846;4.078;2024-02-21T03:38:53;9.10;99.90
20658;DHT22;10488;50.846;4.078;2024-02-21T03:41:19;9.20;99.90
20658;DHT22;10488;50.846;4.078;2024-02-21T03:43:45;9.30;99.90
20658;DHT22;10488;50.846;4.078;2024-02-21T03:46:10;9.10;99.90
20658;DHT22;10488;50.846;4.078;2024-02-21T03:48:36;9.00;99.90
20658;DHT22;10488;50.846;4.078;2024-02-21T03:51:02;9.00;99.90
20658;DHT22;10488;50.846;4.078;2024-02-21T03:53:27;9.10;99.90
20658;DHT22;10488;50.846;4.078;2024-02-21T03:55:54;9.00;99.90
20658;DHT22;10488;50.846;4.078;2024-02-21T03:58:20;9.00;99.90
20658;DHT22;10488;50.846;4.078;2024-02-21T04:00:46;9.00;99.90
20658;DHT22;10488;50.846;4.078;2024-02-21T04:03:11;9.00;99.90
20658;DHT22;10488;50.846;4.078;2024-02-21T04:05:37;9.00;99.90
20658;DHT22;10488;50.846;4.078;2024-02-21T04:08:06;9.10;99.90
20658;DHT22;10488;50.846;4.078;2024-02-21T04:10:31;9.10;99.90
20658;DHT22;10488;50.846;4.078;2024-02-21T04:12:57;9.20;99.90
20658;DHT22;10488;50.846;4.078;2024-02-21T04:15:23;9.10;99.90
20658;DHT22;10488;50.846;4.078;2024-02-21T04:17:48;9.20;99.90
20658;DHT22;10488;50.846;4.078;2024-02-21T04:20:16;9.20;99.90
20658;DHT22;10488;50.846;4.078;2024-02-21T04:22:45;9.20;99.90
20658;DHT22;10488;50.846;4.078;2024-02-21T04:25:11;9.20;99.90
20658;DHT22;10488;50.846;4.078;2024-02-21T04:27:39;9.20;99.90
20658;DHT22;10488;50.846;4.078;2024-02-21T04:30:06;9.20;99.90
20658;DHT22;10488;50.846;4.078;2024-02-21T04:32:32;9.20;99.90
20658;DHT22;10488;50.846;4.078;2024-02-21T04:34:58;9.20;99.90
20658;DHT22;10488;50.846;4.078;2024-02-21T04:37:23;9.20;99.90
20658;DHT22;10488;50.846;4.078;2024-02-21T04:39:50;9.30;99.90
20658;DHT22;10488;50.846;4.078;2024-02-21T04:42:15;9.40;99.90
20658;DHT22;10488;50.846;4.078;2024-02-21T04:44:41;9.40;99.90
20658;DHT22;10488;50.846;4.078;2024-02-21T04:47:07;9.30;99.90
20658;DHT22;10488;50.846;4.078;2024-02-21T04:49:33;9.40;99.90
20658;DHT22;10488;50.846;4.078;2024-02-21T04:51:59;9.30;99.90
20658;DHT22;10488;50.846;4.078;2024-02-21T04:54:24;9.40;99.90
20658;DHT22;10488;50.846;4.078;2024-02-21T04:56:50;9.40;99.90
20658;DHT22;10488;50.846;4.078;2024-02-21T04:59:16;9.40;99.90
20658;DHT22;10488;50.846;4.078;2024-02-21T05:01:42;9.40;99.90
20658;DHT22;10488;50.846;4.078;2024-02-21T05:04:08;9.30;99.90
20658;DHT22;10488;50.846;4.078;2024-02-21T05:06:40;9.20;99.90
20658;DHT22;10488;50.846;4.078;2024-02-21T05:09:07;9.20;99.90
20658;DHT22;10488;50.846;4.078;2024-02-21T05:11:36;9.20;99.90
20658;DHT22;10488;50.846;4.078;2024-02-21T05:14:03;9.30;99.90
20658;DHT22;10488;50.846;4.078;2024-02-21T05:16:30;9.30;99.90
20658;DHT22;10488;50.846;4.078;2024-02-21T05:18:55;9.30;99.90
20658;DHT22;10488;50.846;4.078;2024-02-21T05:21:23;9.40;99.90
20658;DHT22;10488;50.846;4.078;2024-02-21T05:23:50;9.30;99.90
20658;DHT22;10488;50.846;4.078;2024-02-21T05:26:26;9.40;99.90
20658;DHT22;10488;50.846;4.078;2024-02-21T05:28:52;9.20;99.90
20658;DHT22;10488;50.846;4.078;2024-02-21T05:31:18;9.10;99.90
20658;DHT22;10488;50.846;4.078;2024-02-21T05:33:44;9.10;99.90
20658;DHT22;10488;50.846;4.078;2024-02-21T05:36:11;9.10;99.90
20658;DHT22;10488;50.846;4.078;2024-02-21T05:38:37;9.10;99.90
20658;DHT22;10488;50.846;4.078;2024-02-21T05:41:03;9.20;99.90
20658;DHT22;10488;50.846;4.078;2024-02-21T05:43:28;9.10;99.90
20658;DHT22;10488;50.846;4.078;2024-02-21T05:45:54;9.20;99.90
20658;DHT22;10488;50.846;4.078;2024-02-21T05:48:21;9.20;99.90
20658;DHT22;10488;50.846;4.078;2024-02-21T05:50:47;9.10;99.90
20658;DHT22;10488;50.846;4.078;2024-02-21T05:53:13;9.20;99.90
20658;DHT22;10488;50.846;4.078;2024-02-21T05:55:39;9.10;99.90
20658;DHT22;10488;50.846;4.078;2024-02-21T05:58:04;9.20;99.90
20658;DHT22;10488;50.846;4.078;2024-02-21T06:00:31;9.10;99.90
20658;DHT22;10488;50.846;4.078;2024-02-21T06:02:57;9.10;99.90
20658;DHT22;10488;50.846;4.078;2024-02-21T06:05:23;9.20;99.90
20658;DHT22;10488;50.846;4.078;2024-02-21T06:07:48;9.20;99.90
20658;DHT22;10488;50.846;4.078;2024-02-21T06:10:14;9.00;99.90
20658;DHT22;10488;50.846;4.078;2024-02-21T06:12:40;9.10;99.90
20658;DHT22;10488;50.846;4.078;2024-02-21T06:15:06;9.10;99.90
20658;DHT22;10488;50.846;4.078;2024-02-21T06:17:31;9.20;99.90
20658;DHT22;10488;50.846;4.078;2024-02-21T06:19:57;9.10;99.90
20658;DHT22;10488;50.846;4.078;2024-02-21T06:22:23;9.10;99.90
20658;DHT22;10488;50.846;4.078;2024-02-21T06:24:48;9.10;99.90
20658;DHT22;10488;50.846;4.078;2024-02-21T06:27:14;9.00;99.90
20658;DHT22;10488;50.846;4.078;2024-02-21T06:29:41;9.10;99.90
20658;DHT22;10488;50.846;4.078;2024-02-21T06:32:07;9.00;99.90
20658;DHT22;10488;50.846;4.078;2024-02-21T06:34:32;9.10;99.90
20658;DHT22;10488;50.846;4.078;2024-02-21T06:36:58;9.10;99.90
20658;DHT22;10488;50.846;4.078;2024-02-21T06:39:23;9.00;99.90
20658;DHT22;10488;50.846;4.078;2024-02-21T06:41:49;9.10;99.90
20658;DHT22;10488;50.846;4.078;2024-02-21T06:44:17;9.10;99.90
20658;DHT22;10488;50.846;4.078;2024-02-21T06:46:42;9.10;99.90
20658;DHT22;10488;50.846;4.078;2024-02-21T06:49:08;9.10;99.90
20658;DHT22;10488;50.846;4.078;2024-02-21T06:51:34;9.20;99.90
20658;DHT22;10488;50.846;4.078;2024-02-21T06:54:00;9.10;99.90
20658;DHT22;10488;50.846;4.078;2024-02-21T06:56:26;9.20;99.90
20658;DHT22;10488;50.846;4.078;2024-02-21T06:58:57;9.00;99.90
20658;DHT22;10488;50.846;4.078;2024-02-21T07:01:23;9.00;99.90
20658;DHT22;10488;50.846;4.078;2024-02-21T07:03:49;9.10;99.90
20658;DHT22;10488;50.846;4.078;2024-02-21T07:06:14;9.00;99.90
20658;DHT22;10488;50.846;4.078;2024-02-21T07:08:40;9.00;99.90
20658;DHT22;10488;50.846;4.078;2024-02-21T07:11:06;9.00;99.90
20658;DHT22;10488;50.846;4.078;2024-02-21T07:13:32;8.90;99.90
20658;DHT22;10488;50.846;4.078;2024-02-21T07:15:58;8.90;99.90
20658;DHT22;10488;50.846;4.078;2024-02-21T07:18:23;8.90;99.90
20658;DHT22;10488;50.846;4.078;2024-02-21T07:20:51;8.90;99.90
20658;DHT22;10488;50.846;4.078;2024-02-21T07:23:17;9.00;99.90
20658;DHT22;10488;50.846;4.078;2024-02-21T07:25:43;9.00;99.90
20658;DHT22;10488;50.846;4.078;2024-02-21T07:28:09;9.00;99.90
20658;DHT22;10488;50.846;4.078;2024-02-21T07:30:34;9.10;99.90
20658;DHT22;10488;50.846;4.078;2024-02-21T07:33:00;9.10;99.90
20658;DHT22;10488;50.846;4.078;2024-02-21T07:35:26;9.10;99.90
20658;DHT22;10488;50.846;4.078;2024-02-21T07:37:51;9.10;99.90
20658;DHT22;10488;50.846;4.078;2024-02-21T07:40:17;9.00;99.90
20658;DHT22;10488;50.846;4.078;2024-02-21T07:42:44;9.00;99.90
20658;DHT22;10488;50.846;4.078;2024-02-21T07:45:10;9.00;99.90
20658;DHT22;10488;50.846;4.078;2024-02-21T07:47:36;9.00;99.90
20658;DHT22;10488;50.846;4.078;2024-02-21T07:50:02;9.00;99.90
20658;DHT22;10488;50.846;4.078;2024-02-21T07:52:28;9.10;99.90
20658;DHT22;10488;50.846;4.078;2024-02-21T07:54:54;9.00;99.90
20658;DHT22;10488;50.846;4.078;2024-02-21T07:57:19;9.00;99.90
20658;DHT22;10488;50.846;4.078;2024-02-21T07:59:45;9.10;99.90
20658;DHT22;10488;50.846;4.078;2024-02-21T08:02:14;9.10;99.90
20658;DHT22;10488;50.846;4.078;2024-02-21T08:04:39;9.10;99.90
20658;DHT22;10488;50.846;4.078;2024-02-21T08:07:05;9.10;99.90
20658;DHT22;10488;50.846;4.078;2024-02-21T08:09:31;9.10;99.90
20658;DHT22;10488;50.846;4.078;2024-02-21T08:11:57;9.10;99.90
20658;DHT22;10488;50.846;4.078;2024-02-21T08:14:22;9.20;99.90
20658;DHT22;10488;50.846;4.078;2024-02-21T08:16:51;9.20;99.90
20658;DHT22;10488;50.846;4.078;2024-02-21T08:19:18;9.30;99.90
20658;DHT22;10488;50.846;4.078;2024-02-21T08:21:44;9.30;99.90
20658;DHT22;10488;50.846;4.078;2024-02-21T08:24:15;9.20;99.90
20658;DHT22;10488;50.846;4.078;2024-02-21T08:26:42;9.20;99.90
20658;DHT22;10488;50.846;4.078;2024-02-21T08:29:08;9.10;99.90
20658;DHT22;10488;50.846;4.078;2024-02-21T08:31:33;9.10;99.90
20658;DHT22;10488;50.846;4.078;2024-02-21T08:34:00;9.10;99.90
20658;DHT22;10488;50.846;4.078;2024-02-21T08:36:33;9.20;99.90
20658;DHT22;10488;50.846;4.078;2024-02-21T08:39:00;9.30;99.90
20658;DHT22;10488;50.846;4.078;2024-02-21T08:41:26;9.20;99.90
20658;DHT22;10488;50.846;4.078;2024-02-21T08:43:53;9.30;99.90
20658;DHT22;10488;50.846;4.078;2024-02-21T08:46:22;9.30;99.90
20658;DHT22;10488;50.846;4.078;2024-02-21T08:48:50;9.30;99.90
20658;DHT22;10488;50.846;4.078;2024-02-21T08:51:16;9.40;99.90
20658;DHT22;10488;50.846;4.078;2024-02-21T08:53:43;9.30;99.90
20658;DHT22;10488;50.846;4.078;2024-02-21T08:56:09;9.30;99.90
20658;DHT22;10488;50.846;4.078;2024-02-21T08:58:36;9.40;99.90
20658;DHT22;10488;50.846;4.078;2024-02-21T09:01:05;9.40;99.90
20658;DHT22;10488;50.846;4.078;2024-02-21T09:03:32;9.40;99.90
20658;DHT22;10488;50.846;4.078;2024-02-21T09:05:59;9.50;99.90
20658;DHT22;10488;50.846;4.078;2024-02-21T09:08:25;9.50;99.90
20658;DHT22;10488;50.846;4.078;2024-02-21T09:10:51;9.40;99.90
20658;DHT22;10488;50.846;4.078;2024-02-21T09:13:16;9.50;99.90
20658;DHT22;10488;50.846;4.078;2024-02-21T09:15:45;9.40;99.90
20658;DHT22;10488;50.846;4.078;2024-02-21T09:18:11;9.40;99.90
20658;DHT22;10488;50.846;4.078;2024-02-21T09:20:36;9.40;99.90
20658;DHT22;10488;50.846;4.078;2024-02-21T09:23:02;9.50;99.90
20658;DHT22;10488;50.846;4.078;2024-02-21T09:25:28;9.60;99.90
20658;DHT22;10488;50.846;4.078;2024-02-21T09:27:57;9.60;99.90
20658;DHT22;10488;50.846;4.078;2024-02-21T09:30:24;9.70;99.90
20658;DHT22;10488;50.846;4.078;2024-02-21T09:32:50;9.70;99.90
20658;DHT22;10488;50.846;4.078;2024-02-21T09:35:15;9.60;99.90
20658;DHT22;10488;50.846;4.078;2024-02-21T09:37:41;9.80;99.90
20658;DHT22;10488;50.846;4.078;2024-02-21T09:40:07;9.80;99.90
20658;DHT22;10488;50.846;4.078;2024-02-21T09:42:40;9.90;99.90
20658;DHT22;10488;50.846;4.078;2024-02-21T09:45:26;9.90;99.90
20658;DHT22;10488;50.846;4.078;2024-02-21T09:50:56;10.00;99.90
20658;DHT22;10488;50.846;4.078;2024-02-21T09:53:24;10.10;99.90
20658;DHT22;10488;50.846;4.078;2024-02-21T09:55:50;10.00;99.90
20658;DHT22;10488;50.846;4.078;2024-02-21T09:58:17;10.00;99.90
20658;DHT22;10488;50.846;4.078;2024-02-21T10:00:42;10.10;99.90
20658;DHT22;10488;50.846;4.078;2024-02-21T10:03:08;10.00;99.90
20658;DHT22;10488;50.846;4.078;2024-02-21T10:05:37;10.10;99.90
20658;DHT22;10488;50.846;4.078;2024-02-21T10:08:04;10.10;99.90
20658;DHT22;10488;50.846;4.078;2024-02-21T10:10:30;10.20;99.90
20658;DHT22;10488;50.846;4.078;2024-02-21T10:13:05;10.20;99.90
20658;DHT22;10488;50.846;4.078;2024-02-21T10:15:30;10.20;99.90
20658;DHT22;10488;50.846;4.078;2024-02-21T10:18:00;10.10;99.90
20658;DHT22;10488;50.846;4.078;2024-02-21T10:20:27;10.10;99.90
20658;DHT22;10488;50.846;4.078;2024-02-21T10:23:05;10.20;99.90
20658;DHT22;10488;50.846;4.078;2024-02-21T10:25:35;10.20;99.90
20658;DHT22;10488;50.846;4.078;2024-02-21T10:28:03;10.20;99.90
20658;DHT22;10488;50.846;4.078;2024-02-21T10:30:29;10.10;99.90
20658;DHT22;10488;50.846;4.078;2024-02-21T10:32:55;10.20;99.90
20658;DHT22;10488;50.846;4.078;2024-02-21T10:35:31;10.10;99.90
20658;DHT22;10488;50.846;4.078;2024-02-21T10:37:58;10.10;99.90
20658;DHT22;10488;50.846;4.078;2024-02-21T10:40:26;10.20;99.90
20658;DHT22;10488;50.846;4.078;2024-02-21T10:43:02;10.20;99.90
20658;DHT22;10488;50.846;4.078;2024-02-21T10:45:30;10.30;99.90
20658;DHT22;10488;50.846;4.078;2024-02-21T10:48:12;10.40;99.90
20658;DHT22;10488;50.846;4.078;2024-02-21T10:50:53;10.50;99.90
20658;DHT22;10488;50.846;4.078;2024-02-21T10:56:29;10.60;99.90
20658;DHT22;10488;50.846;4.078;2024-02-21T10:58:58;10.50;99.90
20658;DHT22;10488;50.846;4.078;2024-02-21T11:01:23;10.50;99.90
20658;DHT22;10488;50.846;4.078;2024-02-21T11:03:53;10.60;99.90
20658;DHT22;10488;50.846;4.078;2024-02-21T11:06:20;10.60;99.90
20658;DHT22;10488;50.846;4.078;2024-02-21T11:08:46;10.40;99.90
20658;DHT22;10488;50.846;4.078;2024-02-21T11:11:13;10.50;99.90
20658;DHT22;10488;50.846;4.078;2024-02-21T11:13:44;10.50;99.90
20658;DHT22;10488;50.846;4.078;2024-02-21T11:16:12;10.50;99.90
20658;DHT22;10488;50.846;4.078;2024-02-21T11:18:46;10.60;99.90
20658;DHT22;10488;50.846;4.078;2024-02-21T11:21:12;10.60;99.90
20658;DHT22;10488;50.846;4.078;2024-02-21T11:23:38;10.70;99.90
20658;DHT22;10488;50.846;4.078;2024-02-21T11:26:07;10.60;99.90
20658;DHT22;10488;50.846;4.078;2024-02-21T11:28:33;10.70;99.90
20658;DHT22;10488;50.846;4.078;2024-02-21T11:31:10;10.80;99.90
20658;DHT22;10488;50.846;4.078;2024-02-21T11:33:39;10.70;99.90
20658;DHT22;10488;50.846;4.078;2024-02-21T11:36:05;10.80;99.90
20658;DHT22;10488;50.846;4.078;2024-02-21T11:38:31;10.90;99.90
20658;DHT22;10488;50.846;4.078;2024-02-21T11:40:57;10.80;99.90
20658;DHT22;10488;50.846;4.078;2024-02-21T11:43:23;10.90;99.90
20658;DHT22;10488;50.846;4.078;2024-02-21T11:45:49;10.80;99.90
20658;DHT22;10488;50.846;4.078;2024-02-21T11:48:15;10.80;99.90
20658;DHT22;10488;50.846;4.078;2024-02-21T11:50:40;10.70;99.90
20658;DHT22;10488;50.846;4.078;2024-02-21T11:53:06;10.70;99.90
20658;DHT22;10488;50.846;4.078;2024-02-21T11:55:32;10.60;99.90
20658;DHT22;10488;50.846;4.078;2024-02-21T11:57:57;10.60;99.90
20658;DHT22;10488;50.846;4.078;2024-02-21T12:00:25;10.60;99.90
20658;DHT22;10488;50.846;4.078;2024-02-21T12:02:51;10.50;99.90
20658;DHT22;10488;50.846;4.078;2024-02-21T12:05:16;10.50;99.90
20658;DHT22;10488;50.846;4.078;2024-02-21T12:07:44;10.60;99.90
20658;DHT22;10488;50.846;4.078;2024-02-21T12:10:10;10.60;99.90
20658;DHT22;10488;50.846;4.078;2024-02-21T12:12:37;10.60;99.90
20658;DHT22;10488;50.846;4.078;2024-02-21T12:15:04;10.50;99.90
20658;DHT22;10488;50.846;4.078;2024-02-21T12:17:34;10.60;99.90
20658;DHT22;10488;50.846;4.078;2024-02-21T12:20:06;10.50;99.90
20658;DHT22;10488;50.846;4.078;2024-02-21T12:22:35;10.50;99.90
20658;DHT22;10488;50.846;4.078;2024-02-21T12:25:03;10.50;99.90
20658;DHT22;10488;50.846;4.078;2024-02-21T12:27:29;10.60;99.90
20658;DHT22;10488;50.846;4.078;2024-02-21T12:29:55;10.60;99.90
20658;DHT22;10488;50.846;4.078;2024-02-21T12:32:21;10.70;99.90
20658;DHT22;10488;50.846;4.078;2024-02-21T12:34:46;10.70;99.90
20658;DHT22;10488;50.846;4.078;2024-02-21T12:37:12;10.80;99.90
20658;DHT22;10488;50.846;4.078;2024-02-21T12:39:38;10.80;99.90
20658;DHT22;10488;50.846;4.078;2024-02-21T12:42:04;11.00;99.90
20658;DHT22;10488;50.846;4.078;2024-02-21T12:44:30;10.90;99.90
20658;DHT22;10488;50.846;4.078;2024-02-21T12:46:55;10.90;99.90
20658;DHT22;10488;50.846;4.078;2024-02-21T12:49:21;10.90;99.90
20658;DHT22;10488;50.846;4.078;2024-02-21T12:51:46;11.00;99.90
20658;DHT22;10488;50.846;4.078;2024-02-21T12:54:12;11.00;99.90
20658;DHT22;10488;50.846;4.078;2024-02-21T12:56:38;11.10;99.90
20658;DHT22;10488;50.846;4.078;2024-02-21T12:59:05;11.10;99.90
20658;DHT22;10488;50.846;4.078;2024-02-21T13:01:33;11.00;99.90
20658;DHT22;10488;50.846;4.078;2024-02-21T13:03:58;11.10;99.90
20658;DHT22;10488;50.846;4.078;2024-02-21T13:06:26;11.10;99.90
20658;DHT22;10488;50.846;4.078;2024-02-21T13:08:52;11.10;99.90
20658;DHT22;10488;50.846;4.078;2024-02-21T13:11:17;11.10;99.90
20658;DHT22;10488;50.846;4.078;2024-02-21T13:13:43;11.10;99.90
20658;DHT22;10488;50.846;4.078;2024-02-21T13:16:08;11.20;99.90
20658;DHT22;10488;50.846;4.078;2024-02-21T13:18:35;11.40;99.90
20658;DHT22;10488;50.846;4.078;2024-02-21T13:21:04;11.40;99.90
20658;DHT22;10488;50.846;4.078;2024-02-21T13:23:29;11.40;99.90
20658;DHT22;10488;50.846;4.078;2024-02-21T13:25:55;11.40;99.90
20658;DHT22;10488;50.846;4.078;2024-02-21T13:28:20;11.30;99.90
20658;DHT22;10488;50.846;4.078;2024-02-21T13:30:46;11.40;99.90
20658;DHT22;10488;50.846;4.078;2024-02-21T13:33:12;11.20;99.90
20658;DHT22;10488;50.846;4.078;2024-02-21T13:35:38;11.10;99.90
20658;DHT22;10488;50.846;4.078;2024-02-21T13:38:04;11.10;99.90
20658;DHT22;10488;50.846;4.078;2024-02-21T13:40:30;11.00;99.90
20658;DHT22;10488;50.846;4.078;2024-02-21T13:42:55;10.90;99.90
20658;DHT22;10488;50.846;4.078;2024-02-21T13:45:21;10.90;99.90
20658;DHT22;10488;50.846;4.078;2024-02-21T13:47:47;10.90;99.90
20658;DHT22;10488;50.846;4.078;2024-02-21T13:50:13;10.90;99.90
20658;DHT22;10488;50.846;4.078;2024-02-21T13:52:40;10.80;99.90
20658;DHT22;10488;50.846;4.078;2024-02-21T13:55:06;10.80;99.90
20658;DHT22;10488;50.846;4.078;2024-02-21T13:57:37;10.80;99.90
20658;DHT22;10488;50.846;4.078;2024-02-21T14:00:06;10.70;99.90
20658;DHT22;10488;50.846;4.078;2024-02-21T14:02:36;10.70;99.90
20658;DHT22;10488;50.846;4.078;2024-02-21T14:05:02;10.60;99.90
20658;DHT22;10488;50.846;4.078;2024-02-21T14:07:30;10.50;99.90
20658;DHT22;10488;50.846;4.078;2024-02-21T14:09:55;10.50;99.90
20658;DHT22;10488;50.846;4.078;2024-02-21T14:12:21;10.50;99.90
20658;DHT22;10488;50.846;4.078;2024-02-21T14:14:47;10.50;99.90
20658;DHT22;10488;50.846;4.078;2024-02-21T14:17:12;10.50;99.90
20658;DHT22;10488;50.846;4.078;2024-02-21T14:19:38;10.50;99.90
20658;DHT22;10488;50.846;4.078;2024-02-21T14:22:04;10.50;99.90
20658;DHT22;10488;50.846;4.078;2024-02-21T14:24:29;10.50;99.90
20658;DHT22;10488;50.846;4.078;2024-02-21T14:26:55;10.40;99.90
20658;DHT22;10488;50.846;4.078;2024-02-21T14:29:21;10.40;99.90
20658;DHT22;10488;50.846;4.078;2024-02-21T14:31:47;10.40;99.90
20658;DHT22;10488;50.846;4.078;2024-02-21T14:34:13;10.30;99.90
20658;DHT22;10488;50.846;4.078;2024-02-21T14:36:38;10.20;99.90
20658;DHT22;10488;50.846;4.078;2024-02-21T14:39:06;10.20;99.90
20658;DHT22;10488;50.846;4.078;2024-02-21T14:41:31;10.20;99.90
20658;DHT22;10488;50.846;4.078;2024-02-21T14:43:57;10.20;99.90
20658;DHT22;10488;50.846;4.078;2024-02-21T14:46:25;10.10;99.90
20658;DHT22;10488;50.846;4.078;2024-02-21T14:48:54;10.10;99.90
20658;DHT22;10488;50.846;4.078;2024-02-21T14:51:19;10.20;99.90
20658;DHT22;10488;50.846;4.078;2024-02-21T14:53:45;10.10;99.90
20658;DHT22;10488;50.846;4.078;2024-02-21T14:56:18;10.10;99.90
20658;DHT22;10488;50.846;4.078;2024-02-21T14:58:43;10.10;99.90
20658;DHT22;10488;50.846;4.078;2024-02-21T15:01:09;10.10;99.90
20658;DHT22;10488;50.846;4.078;2024-02-21T15:03:35;9.90;99.90
20658;DHT22;10488;50.846;4.078;2024-02-21T15:06:04;9.90;99.90
20658;DHT22;10488;50.846;4.078;2024-02-21T15:08:30;9.90;99.90
20658;DHT22;10488;50.846;4.078;2024-02-21T15:10:55;9.90;99.90
20658;DHT22;10488;50.846;4.078;2024-02-21T15:13:21;9.80;99.90
20658;DHT22;10488;50.846;4.078;2024-02-21T15:15:48;9.80;99.90
20658;DHT22;10488;50.846;4.078;2024-02-21T15:18:16;9.80;99.90
20658;DHT22;10488;50.846;4.078;2024-02-21T15:20:42;9.80;99.90
20658;DHT22;10488;50.846;4.078;2024-02-21T15:23:08;9.80;99.90
20658;DHT22;10488;50.846;4.078;2024-02-21T15:25:33;9.90;99.90
20658;DHT22;10488;50.846;4.078;2024-02-21T15:27:59;9.80;99.90
20658;DHT22;10488;50.846;4.078;2024-02-21T15:30:25;9.80;99.90
20658;DHT22;10488;50.846;4.078;2024-02-21T15:32:52;9.90;99.90
20658;DHT22;10488;50.846;4.078;2024-02-21T15:35:21;9.90;99.90
20658;DHT22;10488;50.846;4.078;2024-02-21T15:37:46;9.90;99.90
20658;DHT22;10488;50.846;4.078;2024-02-21T15:40:13;9.90;99.90
20658;DHT22;10488;50.846;4.078;2024-02-21T15:42:40;9.80;99.90
20658;DHT22;10488;50.846;4.078;2024-02-21T15:45:06;9.80;99.90